Time;durP1;ratioP1;P1;durP2;ratioP2;P2;SDS_P1;SDS_P2;PMS_P1;PMS_P2;Temp;Humidity;BMP_temperature;BMP_pressure;BME280_temperature;BME280_humidity;BME280_pressure;Samples;Min_cycle;Max_cycle;Signal;HPM_P1;HPM_P2
2023/01/19 00:00:50;;;;;;;26.20;8.17;;;;;;;12.44;97.15;98576.47;5051664;28;20188;-53
2023/01/19 00:03:18;;;;;;;24.70;7.43;;;;;;;12.35;97.39;98571.41;5051389;28;20281;-53
2023/01/19 00:05:45;;;;;;;22.97;7.83;;;;;;;12.38;98.22;98586.00;5052081;28;20192;-53
2023/01/19 00:08:16;;;;;;;35.60;10.27;;;;;;;12.40;97.92;98592.84;5051952;28;20246;-53
2023/01/19 00:10:44;;;;;;;32.13;13.13;;;;;;;12.53;97.55;98597.91;5051720;28;20185;-53
2023/01/19 00:13:11;;;;;;;27.63;8.13;;;;;;;12.58;97.19;98601.34;5051261;28;20192;-53
2023/01/19 00:15:38;;;;;;;23.03;8.17;;;;;;;12.48;97.49;98597.06;5051478;28;20188;-55
2023/01/19 00:18:06;;;;;;;29.97;8.93;;;;;;;12.39;97.24;98600.56;5051901;28;20192;-52
2023/01/19 00:20:34;;;;;;;26.53;8.80;;;;;;;12.35;97.75;98604.88;5051178;28;20192;-53
2023/01/19 00:23:01;;;;;;;36.10;7.87;;;;;;;12.38;97.60;98598.88;5051073;28;20226;-53
2023/01/19 00:25:28;;;;;;;26.60;8.03;;;;;;;12.36;97.36;98600.59;5051429;28;20191;-52
2023/01/19 00:27:55;;;;;;;27.87;8.20;;;;;;;12.29;97.64;98592.03;5058857;28;20193;-52
2023/01/19 00:30:21;;;;;;;29.23;7.70;;;;;;;12.39;97.70;98592.84;5070674;28;20682;-52
2023/01/19 00:32:48;;;;;;;37.23;9.43;;;;;;;12.35;97.61;98588.56;5071103;28;20268;-52
2023/01/19 00:35:15;;;;;;;34.27;9.00;;;;;;;12.32;97.70;98607.47;5070996;28;20195;-52
2023/01/19 00:37:45;;;;;;;31.90;8.67;;;;;;;12.31;97.41;98613.47;5066051;28;20267;-55
2023/01/19 00:40:12;;;;;;;27.73;7.20;;;;;;;12.30;96.88;98614.38;5061251;28;20650;-53
2023/01/19 00:42:43;;;;;;;26.80;6.83;;;;;;;12.47;96.01;98618.56;5058647;28;20269;-52
2023/01/19 00:45:12;;;;;;;33.03;9.33;;;;;;;12.51;95.28;98623.69;5060746;28;20184;-53
2023/01/19 00:47:39;;;;;;;25.57;8.23;;;;;;;12.52;92.28;98611.66;5060734;28;20197;-53
2023/01/19 00:50:06;;;;;;;43.70;8.93;;;;;;;12.70;90.58;98617.56;5061525;28;20274;-55
2023/01/19 00:52:33;;;;;;;26.27;7.67;;;;;;;12.76;90.17;98616.66;5066461;28;20279;-52
2023/01/19 00:55:01;;;;;;;38.07;8.37;;;;;;;12.78;88.68;98608.06;5069881;28;20275;-54
2023/01/19 00:57:28;;;;;;;26.53;8.60;;;;;;;12.89;88.11;98607.97;5064653;28;20192;-54
2023/01/19 00:59:55;;;;;;;32.67;7.57;;;;;;;12.93;87.59;98617.41;5063399;28;20188;-53
2023/01/19 01:02:21;;;;;;;32.07;7.77;;;;;;;12.94;82.21;98612.22;5074664;28;20200;-53
2023/01/19 01:04:53;;;;;;;35.90;7.97;;;;;;;13.27;79.11;98621.44;5074886;28;20187;-53
2023/01/19 01:07:20;;;;;;;22.30;6.93;;;;;;;13.36;78.77;98623.97;5074662;28;20187;-53
2023/01/19 01:09:47;;;;;;;27.23;7.33;;;;;;;13.39;79.90;98607.59;5074521;28;20191;-52
2023/01/19 01:12:15;;;;;;;32.70;8.60;;;;;;;13.30;81.75;98605.94;5074469;28;20185;-53
2023/01/19 01:14:42;;;;;;;34.67;9.87;;;;;;;13.13;83.87;98599.25;5074438;28;20194;-54
2023/01/19 01:17:10;;;;;;;33.60;8.10;;;;;;;13.04;85.02;98607.88;5074634;28;20269;-52
2023/01/19 01:19:37;;;;;;;39.17;9.83;;;;;;;12.85;86.84;98596.00;5074408;28;20188;-53
2023/01/19 01:22:04;;;;;;;30.40;9.13;;;;;;;12.77;87.50;98605.50;5074496;28;20567;-52
2023/01/19 01:24:31;;;;;;;28.40;7.67;;;;;;;12.70;88.32;98621.84;5074258;28;20220;-53
2023/01/19 01:26:58;;;;;;;27.83;7.90;;;;;;;12.62;88.87;98600.44;5074384;28;20187;-52
2023/01/19 01:29:26;;;;;;;35.20;8.50;;;;;;;12.50;89.66;98608.25;5074376;28;20199;-53
2023/01/19 01:31:53;;;;;;;34.85;8.55;;;;;;;12.47;90.39;98611.66;5073518;28;20484;-53
2023/01/19 01:34:20;;;;;;;28.03;7.60;;;;;;;12.56;90.70;98614.22;5074406;28;20241;-52
2023/01/19 01:36:46;;;;;;;28.90;8.43;;;;;;;12.60;90.39;98617.63;5074176;28;20188;-52
2023/01/19 01:39:13;;;;;;;29.63;7.07;;;;;;;12.52;90.47;98609.09;5073965;28;20188;-53
2023/01/19 01:41:40;;;;;;;26.10;7.50;;;;;;;12.46;91.20;98611.69;5074162;28;20184;-53
2023/01/19 01:44:48;;;;;;;34.20;7.57;;;;;;;12.40;91.94;98610.00;5073791;28;20710;-53
2023/01/19 01:47:19;;;;;;;28.40;8.43;;;;;;;12.26;92.93;98615.22;5074189;28;20253;-52
2023/01/19 01:49:47;;;;;;;29.77;7.47;;;;;;;12.24;93.55;98626.41;5073966;28;20196;-53
2023/01/19 01:52:16;;;;;;;27.10;6.60;;;;;;;12.15;94.38;98634.16;5073776;28;20188;-53
2023/01/19 01:54:43;;;;;;;33.30;8.60;;;;;;;12.16;94.39;98636.75;5073947;28;20187;-53
2023/01/19 01:57:12;;;;;;;22.80;8.07;;;;;;;12.08;95.33;98648.78;5073764;28;20191;-53
2023/01/19 01:59:43;;;;;;;29.43;8.33;;;;;;;12.02;95.33;98647.94;5073882;28;20280;-52
2023/01/19 02:05:04;;;;;;;28.87;8.13;;;;;;;12.10;94.66;98638.47;5073700;28;20272;-53
2023/01/19 02:13:21;;;;;;;34.23;9.60;;;;;;;11.76;96.75;98628.28;5073711;28;20204;-53
2023/01/19 02:15:50;;;;;;;21.53;9.13;;;;;;;11.78;96.73;98636.00;5073962;28;20658;-53
2023/01/19 02:18:18;;;;;;;30.40;9.27;;;;;;;11.84;96.70;98641.97;5071555;28;20644;-55
2023/01/19 02:20:56;;;;;;;29.30;8.67;;;;;;;11.84;96.37;98638.53;5067614;28;20246;-54
2023/01/19 02:23:36;;;;;;;28.70;8.40;;;;;;;11.87;96.19;98625.66;5067975;28;20294;-54
2023/01/19 02:26:06;;;;;;;22.70;8.17;;;;;;;11.86;96.21;98636.84;5061930;28;20176;-54
2023/01/19 02:28:33;;;;;;;36.15;10.43;;;;;;;11.95;95.65;98631.66;5059522;28;20465;-54
2023/01/19 02:31:00;;;;;;;30.63;8.63;;;;;;;12.00;94.78;98629.09;5062501;28;20226;-54
2023/01/19 02:33:27;;;;;;;37.77;9.03;;;;;;;11.99;94.50;98624.78;5061844;28;20188;-53
2023/01/19 02:35:56;;;;;;;26.50;8.53;;;;;;;11.98;94.58;98631.63;5060500;28;20661;-54
2023/01/19 02:38:26;;;;;;;35.67;8.33;;;;;;;11.86;93.94;98647.13;5065249;28;20260;-53
2023/01/19 02:40:57;;;;;;;29.30;7.63;;;;;;;11.75;94.20;98616.28;5068883;28;20227;-53
2023/01/19 02:43:24;;;;;;;27.03;8.20;;;;;;;11.90;92.97;98605.06;5065555;28;20645;-53
2023/01/19 02:45:51;;;;;;;26.03;8.07;;;;;;;11.93;92.45;98610.22;5061250;28;20561;-53
2023/01/19 02:48:20;;;;;;;26.27;8.13;;;;;;;11.92;92.20;98608.50;5062752;28;20198;-54
2023/01/19 02:50:50;;;;;;;34.23;8.00;;;;;;;11.95;92.01;98636.78;5061054;28;20553;-52
2023/01/19 02:53:48;;;;;;;31.27;8.10;;;;;;;12.01;91.31;98641.06;5073165;28;20265;-52
2023/01/19 02:56:37;;;;;;;46.07;11.50;;;;;;;11.99;90.55;98632.50;5071951;28;20733;-52
2023/01/19 02:59:12;;;;;;;30.20;8.77;;;;;;;11.95;90.50;98629.06;5072490;28;20670;-53
2023/01/19 03:01:53;;;;;;;41.63;14.07;;;;;;;12.07;90.14;98643.63;5072529;28;20199;-52
2023/01/19 03:04:28;;;;;;;36.08;11.68;;;;;;;11.76;89.81;98583.66;5071296;28;20477;-52
2023/01/19 03:07:04;;;;;;;32.07;8.27;;;;;;;11.96;89.90;98630.81;5073094;28;20252;-52
2023/01/19 03:09:37;;;;;;;33.43;12.13;;;;;;;12.10;89.94;98653.91;5072999;28;20195;-54
2023/01/19 03:12:14;;;;;;;37.57;10.17;;;;;;;12.11;89.58;98653.94;5072171;28;20222;-52
2023/01/19 03:14:45;;;;;;;27.33;11.23;;;;;;;11.92;89.98;98612.81;5052133;28;20214;-52
2023/01/19 03:17:15;;;;;;;36.27;10.27;;;;;;;12.09;89.74;98644.47;5052549;28;20200;-53
2023/01/19 03:19:43;;;;;;;37.40;10.77;;;;;;;12.03;90.39;98641.94;5052277;28;20235;-52
2023/01/19 03:22:14;;;;;;;31.57;12.93;;;;;;;11.95;90.78;98659.97;5052720;28;20196;-52
2023/01/19 03:24:44;;;;;;;57.63;20.03;;;;;;;11.89;90.44;98654.84;5051942;28;20226;-53
2023/01/19 03:27:15;;;;;;;22.80;7.23;;;;;;;11.80;91.77;98645.44;5052597;28;20271;-53
2023/01/19 03:29:46;;;;;;;25.83;8.33;;;;;;;11.87;92.20;98656.56;5052144;28;20717;-53
2023/01/19 03:32:17;;;;;;;29.63;9.40;;;;;;;11.81;92.38;98646.31;5052077;28;20196;-53
2023/01/19 03:34:48;;;;;;;27.53;8.90;;;;;;;11.72;92.86;98651.47;5052541;28;20200;-53
2023/01/19 03:37:16;;;;;;;24.77;8.80;;;;;;;11.70;93.58;98651.44;5051880;28;20199;-52
2023/01/19 03:39:44;;;;;;;28.60;7.53;;;;;;;11.61;93.98;98648.88;5051838;28;20647;-53
2023/01/19 03:42:14;;;;;;;29.47;9.10;;;;;;;11.60;94.64;98656.56;5051787;28;20196;-53
2023/01/19 03:44:44;;;;;;;26.43;7.87;;;;;;;11.46;94.74;98635.16;5051880;28;20232;-53
2023/01/19 03:47:13;;;;;;;31.08;8.80;;;;;;;11.55;94.87;98655.72;5051582;28;20389;-52
2023/01/19 03:49:43;;;;;;;26.50;9.37;;;;;;;11.54;94.98;98656.56;5052117;28;20202;-52
2023/01/19 03:52:11;;;;;;;31.83;8.47;;;;;;;11.57;94.29;98646.28;5051866;28;20767;-52
2023/01/19 03:54:38;;;;;;;31.97;9.10;;;;;;;11.49;94.37;98645.44;5051857;28;20246;-51
2023/01/19 03:57:05;;;;;;;29.90;9.93;;;;;;;11.49;94.58;98648.00;5051659;28;20664;-51
2023/01/19 03:59:33;;;;;;;30.07;11.13;;;;;;;11.46;95.03;98658.31;5051516;28;20439;-52
2023/01/19 04:02:00;;;;;;;26.13;10.47;;;;;;;11.40;95.35;98668.63;5051526;28;20711;-52
2023/01/19 04:04:27;;;;;;;35.27;9.80;;;;;;;11.46;95.03;98668.59;5051649;28;20223;-52
2023/01/19 04:06:54;;;;;;;33.33;9.47;;;;;;;11.46;94.88;98674.59;5051514;28;20660;-52
2023/01/19 04:09:20;;;;;;;25.83;7.77;;;;;;;11.35;94.66;98667.72;5056404;28;20199;-52
2023/01/19 04:11:47;;;;;;;26.27;9.43;;;;;;;11.50;94.17;98668.59;5071529;28;20187;-51
2023/01/19 04:14:14;;;;;;;29.37;8.60;;;;;;;11.47;93.95;98678.91;5071623;28;20187;-52
2023/01/19 04:16:42;;;;;;;25.80;8.87;;;;;;;11.46;94.45;98676.31;5071718;28;20269;-52
2023/01/19 04:19:09;;;;;;;21.73;8.70;;;;;;;11.48;94.28;98679.75;5071428;28;20198;-52
2023/01/19 04:21:35;;;;;;;29.87;8.10;;;;;;;11.38;94.04;98681.47;5071398;28;20283;-52
2023/01/19 04:24:02;;;;;;;19.43;7.13;;;;;;;11.33;94.02;98670.31;5058601;28;20224;-52
2023/01/19 04:26:29;;;;;;;23.93;7.60;;;;;;;11.32;94.49;98676.31;5054636;28;20249;-52
2023/01/19 04:28:56;;;;;;;29.90;8.77;;;;;;;11.36;94.62;98672.91;5055602;28;20188;-52
2023/01/19 04:31:23;;;;;;;35.87;8.87;;;;;;;11.43;93.79;98677.16;5055351;28;20191;-52
2023/01/19 04:33:51;;;;;;;35.70;8.73;;;;;;;11.46;93.11;98684.03;5055275;28;20741;-52
2023/01/19 04:36:18;;;;;;;27.83;8.23;;;;;;;11.41;93.35;98685.75;5071407;28;20203;-52
2023/01/19 04:38:45;;;;;;;26.40;9.07;;;;;;;11.41;93.06;98673.75;5075617;28;20673;-52
2023/01/19 04:41:12;;;;;;;24.17;7.97;;;;;;;11.45;92.63;98672.03;5075699;28;20269;-52
2023/01/19 04:43:39;;;;;;;26.10;8.53;;;;;;;11.44;92.70;98672.88;5075230;28;20196;-52
2023/01/19 04:46:06;;;;;;;29.10;7.73;;;;;;;11.49;92.74;98671.16;5075454;28;20192;-52
2023/01/19 04:48:33;;;;;;;33.53;9.83;;;;;;;11.47;91.76;98666.03;5075778;28;20192;-52
2023/01/19 04:51:01;;;;;;;31.27;9.53;;;;;;;11.50;91.18;98665.16;5075377;28;20568;-52
2023/01/19 04:53:28;;;;;;;32.53;10.60;;;;;;;11.44;91.78;98676.31;5075394;28;20537;-52
2023/01/19 04:55:55;;;;;;;26.07;8.97;;;;;;;11.43;91.73;98689.16;5075332;28;20188;-52
2023/01/19 04:58:22;;;;;;;24.87;8.30;;;;;;;11.36;92.11;98692.59;5075745;28;20195;-52
2023/01/19 05:00:50;;;;;;;31.47;9.30;;;;;;;11.39;92.34;98666.91;5074752;28;20188;-52
2023/01/19 05:03:18;;;;;;;36.30;10.50;;;;;;;11.34;91.67;98671.19;5074668;28;20644;-52
2023/01/19 05:05:45;;;;;;;32.40;9.47;;;;;;;11.38;91.86;98673.75;5074725;28;20247;-52
2023/01/19 05:08:13;;;;;;;26.63;8.67;;;;;;;11.25;91.66;98652.34;5074062;28;20196;-52
2023/01/19 05:10:40;;;;;;;22.37;8.30;;;;;;;11.40;91.66;98679.75;5075144;28;20203;-55
2023/01/19 05:13:07;;;;;;;29.20;10.40;;;;;;;11.36;90.65;98657.47;5074874;28;20207;-53
2023/01/19 05:15:33;;;;;;;33.90;8.90;;;;;;;11.41;91.14;98672.88;5074541;28;20199;-53
2023/01/19 05:18:00;;;;;;;25.63;9.37;;;;;;;11.45;90.77;98669.47;5074718;28;20195;-53
2023/01/19 05:20:27;;;;;;;34.03;10.60;;;;;;;11.38;90.13;98681.47;5074858;28;20187;-53
2023/01/19 05:22:54;;;;;;;31.17;10.40;;;;;;;11.39;90.21;98698.63;5074601;28;20200;-53
2023/01/19 05:25:22;;;;;;;54.47;13.73;;;;;;;11.32;91.10;98688.34;5074228;28;20219;-53
2023/01/19 05:27:48;;;;;;;33.70;10.60;;;;;;;11.30;90.24;98688.31;5074329;28;20188;-54
2023/01/19 05:30:16;;;;;;;30.27;10.43;;;;;;;11.37;90.31;98689.19;5074424;28;20321;-53
2023/01/19 05:32:43;;;;;;;26.10;8.83;;;;;;;11.32;88.51;98676.31;5074508;28;20199;-53
2023/01/19 05:35:12;;;;;;;37.60;10.17;;;;;;;11.45;88.01;98692.63;5074519;28;20199;-53
2023/01/19 05:37:39;;;;;;;36.53;8.63;;;;;;;11.45;88.21;98702.91;5074064;28;20191;-53
2023/01/19 05:40:07;;;;;;;31.97;10.57;;;;;;;11.45;88.13;98705.47;5074220;28;20330;-53
2023/01/19 05:42:36;;;;;;;35.30;10.67;;;;;;;11.46;87.74;98696.88;5074073;28;20241;-53
2023/01/19 05:45:03;;;;;;;27.00;10.17;;;;;;;11.47;87.48;98696.91;5074147;28;20280;-53
2023/01/19 05:47:30;;;;;;;27.07;8.73;;;;;;;11.53;88.80;98709.78;5074171;28;20191;-53
2023/01/19 05:49:57;;;;;;;30.27;9.13;;;;;;;11.59;86.92;98706.34;5073865;28;20187;-53
2023/01/19 05:52:24;;;;;;;30.30;9.63;;;;;;;11.12;86.92;98634.34;5074029;28;20188;-53
2023/01/19 05:54:53;;;;;;;36.37;11.17;;;;;;;11.64;86.86;98727.78;5073973;28;20214;-53
2023/01/19 05:57:20;;;;;;;30.10;9.63;;;;;;;11.61;86.55;98714.91;5073427;28;20190;-53
2023/01/19 05:59:48;;;;;;;33.63;11.60;;;;;;;11.57;86.52;98715.75;5073894;28;20265;-54
2023/01/19 06:02:15;;;;;;;37.40;12.13;;;;;;;11.54;86.35;98728.59;5073536;28;20195;-53
2023/01/19 06:04:41;;;;;;;34.70;12.77;;;;;;;11.49;86.99;98735.47;5073519;28;20219;-53
2023/01/19 06:07:08;;;;;;;34.90;11.83;;;;;;;11.47;86.74;98738.06;5069278;28;20198;-53
2023/01/19 06:09:35;;;;;;;32.50;14.37;;;;;;;11.53;86.50;98737.19;5071319;28;20191;-51
2023/01/19 06:12:02;;;;;;;38.80;13.17;;;;;;;11.51;86.82;98726.06;5071908;28;20192;-52
2023/01/19 06:14:29;;;;;;;40.23;14.17;;;;;;;11.52;86.65;98730.31;5073697;28;20217;-52
2023/01/19 06:16:57;;;;;;;36.43;14.30;;;;;;;11.62;85.99;98732.06;5073396;28;20672;-52
2023/01/19 06:19:24;;;;;;;39.73;16.43;;;;;;;11.67;86.41;98727.78;5073105;28;20229;-53
2023/01/19 06:21:51;;;;;;;48.40;15.90;;;;;;;11.70;85.58;98722.66;5071706;28;20282;-53
2023/01/19 06:24:18;;;;;;;39.17;17.23;;;;;;;11.77;85.17;98737.22;5071118;28;20662;-52
2023/01/19 06:26:45;;;;;;;44.63;14.53;;;;;;;11.72;85.27;98723.50;5072109;28;20219;-53
2023/01/19 06:29:13;;;;;;;39.73;14.73;;;;;;;11.65;85.31;98726.88;5074583;28;20192;-53
2023/01/19 06:31:40;;;;;;;33.90;13.33;;;;;;;11.51;85.55;98733.78;5075085;28;20311;-52
2023/01/19 06:34:08;;;;;;;39.70;15.13;;;;;;;11.51;86.24;98733.78;5053077;28;20252;-52
2023/01/19 06:36:35;;;;;;;43.13;14.73;;;;;;;11.40;86.74;98738.88;5067490;28;20199;-52
2023/01/19 06:39:04;;;;;;;43.13;13.97;;;;;;;11.42;86.42;98741.47;5072768;28;20210;-51
2023/01/19 06:41:32;;;;;;;34.23;13.13;;;;;;;11.40;86.73;98756.06;5073111;28;20308;-53
2023/01/19 06:43:59;;;;;;;34.90;12.73;;;;;;;11.37;87.03;98756.06;5072779;28;20195;-52
2023/01/19 06:46:26;;;;;;;29.13;10.57;;;;;;;11.35;87.48;98755.16;5071874;28;20809;-53
2023/01/19 06:48:54;;;;;;;30.67;10.93;;;;;;;11.25;88.44;98747.47;5071427;28;20207;-53
2023/01/19 06:51:22;;;;;;;41.67;12.37;;;;;;;11.25;89.25;98755.19;5071942;28;20275;-54
2023/01/19 06:53:50;;;;;;;24.67;10.77;;;;;;;11.35;88.70;98743.19;5069695;28;20184;-52
2023/01/19 06:56:16;;;;;;;34.87;12.87;;;;;;;11.49;88.19;98748.31;5072398;28;20237;-53
2023/01/19 06:58:43;;;;;;;31.77;10.70;;;;;;;11.57;87.91;98754.34;5072204;28;20203;-53
2023/01/19 07:01:10;;;;;;;34.57;11.40;;;;;;;11.42;87.84;98741.47;5072566;28;20192;-53
2023/01/19 07:03:37;;;;;;;32.33;10.43;;;;;;;11.59;87.71;98739.78;5072332;28;20194;-52
2023/01/19 07:06:06;;;;;;;43.03;12.93;;;;;;;11.68;87.11;98745.75;5070434;28;20304;-52
2023/01/19 07:08:35;;;;;;;37.47;11.43;;;;;;;11.62;87.02;98750.91;5074024;28;20257;-53
2023/01/19 07:11:05;;;;;;;37.70;12.17;;;;;;;11.74;87.00;98752.66;5072141;28;20191;-53
2023/01/19 07:13:32;;;;;;;37.17;11.87;;;;;;;11.67;86.17;98756.06;5070694;28;20187;-53
2023/01/19 07:15:59;;;;;;;32.87;11.10;;;;;;;11.65;87.09;98770.63;5072064;28;20664;-53
2023/01/19 07:18:26;;;;;;;40.83;11.13;;;;;;;11.73;87.04;98776.66;5072748;28;20199;-53
2023/01/19 07:20:53;;;;;;;39.67;11.20;;;;;;;11.77;86.16;98773.25;5070498;28;20188;-58
2023/01/19 07:23:19;;;;;;;38.17;12.13;;;;;;;11.92;85.31;98762.09;5072009;28;20718;-57
2023/01/19 07:25:47;;;;;;;36.77;10.23;;;;;;;11.95;85.25;98770.66;5070567;28;20695;-57
2023/01/19 07:28:15;;;;;;;49.03;12.37;;;;;;;12.04;85.04;98764.63;5069912;28;20184;-57
2023/01/19 07:30:42;;;;;;;35.20;9.87;;;;;;;12.04;83.79;98742.34;5071252;28;20188;-57
2023/01/19 07:33:09;;;;;;;29.10;8.47;;;;;;;12.26;83.51;98762.03;5071277;28;20240;-57
2023/01/19 07:35:36;;;;;;;40.07;9.07;;;;;;;12.31;82.88;98757.72;5068692;28;20240;-57
2023/01/19 07:38:03;;;;;;;39.03;10.53;;;;;;;12.31;83.11;98754.28;5071385;28;20202;-56
2023/01/19 07:40:30;;;;;;;42.00;11.87;;;;;;;12.44;82.95;98764.53;5071419;28;20223;-52
2023/01/19 07:42:58;;;;;;;35.33;10.13;;;;;;;12.54;82.62;98761.94;5071739;28;20195;-51
2023/01/19 07:45:26;;;;;;;36.33;13.17;;;;;;;12.69;82.10;98764.50;5071385;28;20223;-52
2023/01/19 07:47:54;;;;;;;49.20;13.57;;;;;;;12.76;81.90;98761.00;5071290;28;20675;-53
2023/01/19 07:50:23;;;;;;;35.13;11.37;;;;;;;12.90;81.46;98767.81;5071782;28;20232;-51
2023/01/19 07:52:51;;;;;;;30.93;10.00;;;;;;;13.04;81.00;98757.44;5071038;28;20278;-53
2023/01/19 07:55:18;;;;;;;50.93;11.23;;;;;;;13.15;80.60;98752.25;5070895;28;20222;-52
2023/01/19 07:57:45;;;;;;;38.90;12.20;;;;;;;13.31;79.84;98740.97;5076537;28;20231;-53
2023/01/19 08:00:14;;;;;;;40.27;9.90;;;;;;;13.41;79.39;98748.63;5091689;28;20187;-52
2023/01/19 08:02:41;;;;;;;33.53;8.97;;;;;;;13.41;79.03;98748.63;5091485;28;20274;-55
2023/01/19 08:05:08;;;;;;;36.43;9.23;;;;;;;13.55;78.55;98738.19;5089959;28;20606;-52
2023/01/19 08:07:35;;;;;;;31.93;8.57;;;;;;;13.69;77.43;98732.91;5070345;28;20663;-53
2023/01/19 08:10:02;;;;;;;37.10;9.10;;;;;;;13.75;77.46;98735.47;5071623;28;20192;-52
2023/01/19 08:12:29;;;;;;;43.37;9.03;;;;;;;13.81;77.56;98748.31;5072024;28;20195;-52
2023/01/19 08:14:55;;;;;;;30.27;10.00;;;;;;;13.97;77.06;98750.75;5071325;28;20192;-52
2023/01/19 08:17:23;;;;;;;41.67;10.17;;;;;;;14.11;77.20;98750.63;5071251;28;20202;-53
2023/01/19 08:19:50;;;;;;;34.93;9.47;;;;;;;14.24;76.70;98749.63;5071574;28;20193;-53
2023/01/19 08:22:17;;;;;;;38.17;9.00;;;;;;;14.35;74.80;98757.28;5071404;28;20199;-53
2023/01/19 08:24:44;;;;;;;48.87;12.37;;;;;;;14.49;73.48;98758.84;5071124;28;20654;-53
2023/01/19 08:27:10;;;;;;;43.58;11.63;;;;;;;14.62;72.38;98742.31;5070730;28;20434;-54
2023/01/19 08:29:37;;;;;;;47.40;10.83;;;;;;;14.71;72.37;98752.56;5071860;28;20194;-53
2023/01/19 08:32:05;;;;;;;38.30;11.40;;;;;;;14.79;72.72;98752.47;5068855;28;20191;-54
2023/01/19 08:34:33;;;;;;;45.63;11.40;;;;;;;14.84;72.93;98744.63;5050971;28;20693;-53
2023/01/19 08:37:00;;;;;;;35.37;9.30;;;;;;;14.88;73.18;98747.19;5051042;28;20195;-52
2023/01/19 08:39:27;;;;;;;46.10;11.50;;;;;;;14.95;73.27;98758.28;5054560;28;20191;-53
2023/01/19 08:41:54;;;;;;;40.50;9.83;;;;;;;15.06;72.48;98759.00;5067386;28;20609;-53
2023/01/19 08:44:21;;;;;;;33.70;10.70;;;;;;;15.14;72.47;98751.97;5070954;28;20191;-53
2023/01/19 08:46:48;;;;;;;29.33;8.47;;;;;;;15.22;70.19;98755.31;5071069;28;20227;-52
2023/01/19 08:49:15;;;;;;;41.60;9.63;;;;;;;15.30;68.90;98743.13;5071065;28;20242;-53
2023/01/19 08:51:45;;;;;;;40.27;10.47;;;;;;;15.30;68.60;98725.00;5070898;28;20194;-52
2023/01/19 08:54:12;;;;;;;40.40;10.73;;;;;;;15.24;68.66;98719.94;5070860;28;20277;-52
2023/01/19 08:56:39;;;;;;;39.53;10.37;;;;;;;15.38;68.96;98741.31;5070888;28;20187;-53
2023/01/19 08:59:06;;;;;;;38.17;11.17;;;;;;;15.55;68.15;98738.47;5070943;28;20190;-53
2023/01/19 09:01:33;;;;;;;48.00;12.53;;;;;;;15.62;67.68;98730.59;5070548;28;20187;-54
2023/01/19 09:03:59;;;;;;;38.60;10.17;;;;;;;15.71;67.00;98714.88;5070600;28;20207;-52
2023/01/19 09:06:27;;;;;;;38.30;10.47;;;;;;;15.87;65.03;98715.50;5068990;28;20273;-51
2023/01/19 09:08:56;;;;;;;47.80;10.47;;;;;;;15.91;64.42;98722.31;5070489;28;20261;-52
2023/01/19 09:11:23;;;;;;;42.10;11.07;;;;;;;15.94;64.98;98733.47;5080079;28;20191;-53
2023/01/19 09:13:50;;;;;;;35.70;9.93;;;;;;;16.03;64.79;98723.84;5075927;28;20257;-53
2023/01/19 09:16:16;;;;;;;38.10;10.23;;;;;;;16.14;63.72;98709.81;5074579;28;20191;-53
2023/01/19 09:18:44;;;;;;;45.77;9.47;;;;;;;16.17;63.50;98720.13;5074489;28;20196;-53
2023/01/19 09:21:12;;;;;;;36.47;9.33;;;;;;;16.26;64.06;98712.16;5074362;28;20277;-53
2023/01/19 09:23:39;;;;;;;31.43;9.33;;;;;;;16.40;62.76;98715.34;5074250;28;20245;-55
2023/01/19 09:26:07;;;;;;;41.57;9.60;;;;;;;16.46;62.15;98715.22;5074407;28;20238;-55
2023/01/19 09:28:34;;;;;;;57.87;10.83;;;;;;;16.58;61.31;98718.50;5074365;28;20192;-53
2023/01/19 09:31:06;;;;;;;36.83;9.47;;;;;;;16.69;61.04;98698.38;5071312;28;20191;-55
2023/01/19 09:33:33;;;;;;;42.77;10.53;;;;;;;16.72;60.28;98691.38;5074367;28;20673;-54
2023/01/19 09:36:00;;;;;;;44.30;10.50;;;;;;;16.81;60.33;98700.72;5074144;28;20192;-53
2023/01/19 09:38:30;;;;;;;39.90;9.87;;;;;;;16.92;59.73;98689.19;5074489;28;20286;-53
2023/01/19 09:40:58;;;;;;;37.30;11.33;;;;;;;17.07;58.74;98696.66;5074336;28;20227;-53
2023/01/19 09:43:35;;;;;;;40.77;9.07;;;;;;;17.10;56.32;98690.53;5072499;28;20192;-54
2023/01/19 09:46:06;;;;;;;37.23;10.00;;;;;;;17.14;55.10;98676.59;5071756;28;20238;-53
2023/01/19 09:48:42;;;;;;;37.43;9.53;;;;;;;16.84;55.49;98626.25;5072972;28;20180;-54
2023/01/19 09:51:14;;;;;;;37.23;8.47;;;;;;;17.35;54.43;98702.06;5072852;28;20182;-54
2023/01/19 09:53:51;;;;;;;35.30;8.23;;;;;;;17.52;53.72;98692.13;5069205;28;20191;-54
2023/01/19 09:56:20;;;;;;;42.93;8.90;;;;;;;17.65;52.13;98693.56;5070689;28;20548;-54
2023/01/19 09:58:50;;;;;;;40.87;9.10;;;;;;;17.67;51.66;98672.72;5073092;28;20611;-54
2023/01/19 10:01:34;;;;;;;34.40;8.70;;;;;;;17.81;50.69;98665.44;5073006;28;20217;-55
2023/01/19 10:04:31;;;;;;;45.70;8.43;;;;;;;18.00;50.89;98661.47;5070792;28;20612;-53
2023/01/19 10:07:32;;;;;;;39.33;8.97;;;;;;;18.00;50.58;98664.06;5067263;28;20226;-54
2023/01/19 10:10:12;;;;;;;28.37;7.73;;;;;;;17.98;48.92;98639.88;5073388;28;20656;-54
2023/01/19 10:12:50;;;;;;;42.13;8.23;;;;;;;18.20;47.07;98672.19;5074339;28;20203;-55
2023/01/19 10:15:28;;;;;;;43.37;10.93;;;;;;;18.33;46.52;98677.03;5071636;28;20180;-55
2023/01/19 10:18:12;;;;;;;33.30;7.20;;;;;;;18.45;44.65;98648.94;5070915;28;20218;-55
2023/01/19 10:20:43;;;;;;;48.50;9.07;;;;;;;18.55;44.90;98649.53;5072135;28;20196;-54
2023/01/19 10:23:23;;;;;;;35.97;9.60;;;;;;;18.62;45.81;98651.91;5072064;28;20672;-55
2023/01/19 10:25:51;;;;;;;33.60;8.33;;;;;;;18.69;46.49;98656.03;5073132;28;20218;-54
2023/01/19 10:28:23;;;;;;;47.38;9.93;;;;;;;18.78;47.17;98645.38;5073224;28;20468;-54
2023/01/19 10:30:54;;;;;;;47.77;9.10;;;;;;;18.84;47.89;98639.13;5073279;28;20196;-53
2023/01/19 10:33:21;;;;;;;44.53;9.87;;;;;;;18.93;48.36;98637.97;5073323;28;20202;-52
2023/01/19 10:35:49;;;;;;;35.60;9.30;;;;;;;18.96;48.72;98632.66;5073451;28;20196;-53
2023/01/19 10:38:20;;;;;;;43.73;8.77;;;;;;;19.02;48.52;98641.16;5073165;28;20200;-54
2023/01/19 10:40:55;;;;;;;37.20;8.57;;;;;;;19.05;47.34;98629.78;5072503;28;20625;-53
2023/01/19 10:43:43;;;;;;;31.37;8.53;;;;;;;19.14;44.23;98621.69;5072556;28;20284;-53
2023/01/19 10:46:33;;;;;;;34.50;9.20;;;;;;;19.21;44.76;98624.03;5069451;28;20238;-54
2023/01/19 10:49:00;;;;;;;40.77;8.80;;;;;;;19.25;44.73;98625.66;5072460;28;20195;-53
2023/01/19 10:51:27;;;;;;;36.83;9.17;;;;;;;19.30;44.55;98631.56;5072240;28;20191;-54
2023/01/19 10:53:57;;;;;;;41.13;9.70;;;;;;;19.37;44.38;98619.16;5072737;28;20195;-54
2023/01/19 10:56:26;;;;;;;38.60;9.87;;;;;;;19.54;42.67;98624.72;5072534;28;20207;-54
2023/01/19 10:58:53;;;;;;;40.20;9.93;;;;;;;19.57;41.18;98619.41;5072577;28;20275;-54
2023/01/19 11:01:23;;;;;;;34.87;7.47;;;;;;;19.62;41.81;98622.69;5072562;28;20191;-54
2023/01/19 11:03:53;;;;;;;42.23;7.93;;;;;;;19.67;40.66;98626.00;5072418;28;20253;-54
2023/01/19 11:06:23;;;;;;;25.47;5.73;;;;;;;19.61;39.10;98599.31;5072056;28;20216;-54
2023/01/19 11:08:52;;;;;;;25.83;6.50;;;;;;;19.74;38.01;98600.59;5072404;28;20196;-54
2023/01/19 11:11:19;;;;;;;33.07;6.60;;;;;;;19.80;38.39;98595.16;5072214;28;20644;-54
2023/01/19 11:14:03;;;;;;;33.17;7.80;;;;;;;19.53;38.72;98537.00;5072259;28;20751;-54
2023/01/19 11:16:33;;;;;;;31.30;7.77;;;;;;;19.87;38.72;98613.13;5070699;28;20279;-55
2023/01/19 11:19:02;;;;;;;26.67;6.67;;;;;;;19.96;37.60;98598.91;5067453;28;20202;-54
2023/01/19 11:21:31;;;;;;;32.60;6.77;;;;;;;19.96;36.96;98606.75;5071770;28;20248;-54
2023/01/19 11:24:01;;;;;;;33.53;7.00;;;;;;;19.99;36.83;98596.22;5071670;28;20187;-54
2023/01/19 11:26:30;;;;;;;27.47;5.90;;;;;;;20.02;35.44;98596.94;5068813;28;20855;-55
2023/01/19 11:28:58;;;;;;;33.27;7.17;;;;;;;20.02;36.53;98591.72;5072728;28;20195;-54
2023/01/19 11:31:33;;;;;;;33.57;6.77;;;;;;;20.18;36.24;98602.47;5091932;28;20187;-54
2023/01/19 11:34:03;;;;;;;32.00;7.70;;;;;;;20.26;36.42;98589.16;5087270;28;20194;-54
2023/01/19 11:36:31;;;;;;;24.80;6.67;;;;;;;20.48;33.77;98605.72;5072065;28;20203;-54
2023/01/19 11:39:01;;;;;;;22.13;4.63;;;;;;;20.64;31.60;98583.34;5071522;28;20571;-54